createdAt,value
2022-08-27T00:00:48.397Z,19.09
2022-08-27T00:03:15.544Z,19.16
2022-08-27T00:05:43.320Z,19.09
2022-08-27T00:08:12.703Z,19.17
2022-08-27T00:10:41.079Z,19.09
2022-08-27T00:13:07.821Z,19.04
2022-08-27T00:15:35.161Z,19.00
2022-08-27T00:18:01.967Z,18.95
2022-08-27T00:20:28.897Z,18.92
2022-08-27T00:22:55.865Z,18.89
2022-08-27T00:25:23.396Z,18.87
2022-08-27T00:27:50.903Z,18.89
2022-08-27T00:30:20.543Z,18.88
2022-08-27T00:32:47.832Z,18.82
2022-08-27T00:35:16.083Z,18.82
2022-08-27T00:37:44.221Z,18.79
2022-08-27T00:40:15.472Z,18.82
2022-08-27T00:42:42.655Z,18.77
2022-08-27T00:45:10.137Z,18.77
2022-08-27T00:47:43.869Z,18.81
2022-08-27T00:50:14.853Z,18.81
2022-08-27T00:52:53.677Z,18.80
2022-08-27T00:55:31.290Z,18.68
2022-08-27T00:58:09.235Z,18.68
2022-08-27T01:00:36.942Z,18.75
2022-08-27T01:03:03.865Z,18.76
2022-08-27T01:05:31.222Z,18.68
2022-08-27T01:08:03.815Z,18.70
2022-08-27T01:10:30.784Z,18.64
2022-08-27T01:12:58.479Z,18.64
2022-08-27T01:15:29.715Z,18.60
2022-08-27T01:17:58.144Z,18.61
2022-08-27T01:20:30.743Z,18.57
2022-08-27T01:23:13.447Z,18.56
2022-08-27T01:25:41.630Z,18.47
2022-08-27T01:28:09.888Z,18.46
2022-08-27T01:30:37.131Z,18.39
2022-08-27T01:33:14.625Z,18.31
2022-08-27T01:35:46.978Z,18.32
2022-08-27T01:38:30.133Z,18.29
2022-08-27T01:40:59.189Z,18.28
2022-08-27T01:43:27.886Z,18.29
2022-08-27T01:45:54.880Z,18.30
2022-08-27T01:48:22.653Z,18.26
2022-08-27T01:50:49.607Z,18.32
2022-08-27T01:53:20.256Z,18.38
2022-08-27T01:55:48.504Z,18.37
2022-08-27T01:58:16.105Z,18.37
2022-08-27T02:00:46.377Z,18.23
2022-08-27T02:03:13.227Z,18.19
2022-08-27T02:05:44.734Z,18.19
2022-08-27T02:08:13.098Z,18.19
2022-08-27T02:10:40.496Z,18.17
2022-08-27T02:13:08.221Z,18.16
2022-08-27T02:15:38.037Z,18.14
2022-08-27T02:18:06.154Z,18.18
2022-08-27T02:20:34.071Z,18.17
2022-08-27T02:23:01.550Z,18.17
2022-08-27T02:25:29.033Z,18.23
2022-08-27T02:28:00.217Z,18.14
2022-08-27T02:30:28.854Z,18.08
2022-08-27T02:32:55.551Z,18.06
2022-08-27T02:35:23.972Z,18.06
2022-08-27T02:37:51.346Z,18.01
2022-08-27T02:40:20.883Z,17.96
2022-08-27T02:42:47.933Z,18.00
2022-08-27T02:45:15.849Z,17.97
2022-08-27T02:47:43.203Z,17.97
2022-08-27T02:50:11.002Z,17.95
2022-08-27T02:52:38.208Z,17.90
2022-08-27T02:55:06.497Z,17.83
2022-08-27T02:57:36.676Z,17.79
2022-08-27T03:00:09.840Z,17.73
2022-08-27T03:02:37.139Z,17.77
2022-08-27T03:05:04.924Z,17.77
2022-08-27T03:07:31.695Z,17.74
2022-08-27T03:09:58.364Z,17.74
2022-08-27T03:12:25.093Z,17.70
2022-08-27T03:14:51.915Z,17.66
2022-08-27T03:17:37.184Z,17.67
2022-08-27T03:20:05.772Z,17.63
2022-08-27T03:22:32.459Z,17.61
2022-08-27T03:24:59.097Z,17.63
2022-08-27T03:27:25.849Z,17.61
2022-08-27T03:29:52.539Z,17.55
2022-08-27T03:32:19.229Z,17.49
2022-08-27T03:34:45.942Z,17.55
2022-08-27T03:37:12.619Z,17.55
2022-08-27T03:39:39.479Z,17.52
2022-08-27T03:42:06.174Z,17.53
2022-08-27T03:44:33.039Z,17.43
2022-08-27T03:47:00.587Z,17.46
2022-08-27T03:49:27.326Z,17.43
2022-08-27T03:51:54.148Z,17.36
2022-08-27T03:54:20.867Z,17.35
2022-08-27T03:56:47.621Z,17.35
2022-08-27T03:59:15.792Z,17.35
2022-08-27T04:01:43.492Z,17.36
2022-08-27T04:04:10.763Z,17.41
2022-08-27T04:06:37.424Z,17.41
2022-08-27T04:09:05.009Z,17.41
2022-08-27T04:11:34.455Z,17.40
2022-08-27T04:14:04.665Z,17.39
2022-08-27T04:16:51.503Z,17.35
2022-08-27T04:19:20.021Z,17.36
2022-08-27T04:21:48.649Z,17.35
2022-08-27T04:24:16.733Z,17.51
2022-08-27T04:26:45.729Z,17.48
2022-08-27T04:29:12.413Z,17.49
2022-08-27T04:31:39.123Z,17.47
2022-08-27T04:34:07.707Z,17.49
2022-08-27T04:36:34.526Z,17.52
2022-08-27T04:39:01.355Z,17.49
2022-08-27T04:41:28.209Z,17.49
2022-08-27T04:44:02.806Z,17.47
2022-08-27T04:46:35.253Z,17.57
2022-08-27T04:49:07.215Z,17.61
2022-08-27T04:51:39.890Z,17.70
2022-08-27T04:54:07.781Z,17.78
2022-08-27T04:56:39.227Z,17.83
2022-08-27T04:59:08.750Z,17.89
2022-08-27T05:01:37.383Z,17.98
2022-08-27T05:04:04.470Z,18.03
2022-08-27T05:06:31.658Z,18.12
2022-08-27T05:08:59.137Z,18.23
2022-08-27T05:11:34.410Z,18.33
2022-08-27T05:14:06.137Z,18.41
2022-08-27T05:16:36.362Z,18.50
2022-08-27T05:19:06.098Z,18.59
2022-08-27T05:21:35.301Z,18.71
2022-08-27T05:24:04.119Z,18.79
2022-08-27T05:26:32.798Z,18.91
2022-08-27T05:29:00.342Z,19.04
2022-08-27T05:31:28.430Z,19.12
2022-08-27T05:33:56.479Z,19.33
2022-08-27T05:36:33.157Z,19.53
2022-08-27T05:39:01.954Z,19.64
2022-08-27T05:41:33.641Z,19.81
2022-08-27T05:44:18.396Z,19.93
2022-08-27T05:46:51.070Z,20.27
2022-08-27T05:49:18.462Z,20.39
2022-08-27T05:51:45.254Z,20.61
2022-08-27T05:54:18.855Z,20.77
2022-08-27T05:56:46.329Z,20.94
2022-08-27T05:59:31.516Z,21.08
2022-08-27T06:02:02.502Z,21.24
2022-08-27T06:04:29.241Z,21.48
2022-08-27T06:06:56.446Z,21.59
2022-08-27T06:09:25.947Z,21.79
2022-08-27T06:12:01.544Z,22.01
2022-08-27T06:14:28.898Z,22.22
2022-08-27T06:16:55.744Z,22.28
2022-08-27T06:19:23.074Z,22.53
2022-08-27T06:22:00.925Z,22.61
2022-08-27T06:24:39.021Z,22.96
2022-08-27T06:27:06.123Z,23.30
2022-08-27T06:29:35.263Z,23.50
2022-08-27T06:32:02.289Z,23.70
2022-08-27T06:34:28.999Z,23.89
2022-08-27T06:36:55.691Z,24.17
2022-08-27T06:39:22.406Z,24.32
2022-08-27T06:41:50.301Z,24.54
2022-08-27T06:44:21.465Z,24.70
2022-08-27T06:46:48.265Z,25.17
2022-08-27T06:49:17.264Z,25.39
2022-08-27T06:51:46.859Z,25.28
2022-08-27T06:54:14.483Z,24.80
2022-08-27T06:56:42.383Z,24.88
2022-08-27T06:59:12.285Z,25.58
2022-08-27T07:01:41.880Z,25.78
2022-08-27T07:04:12.506Z,26.09
2022-08-27T07:06:40.027Z,26.15
2022-08-27T07:09:06.843Z,26.60
2022-08-27T07:11:33.702Z,26.65
2022-08-27T07:14:00.907Z,27.21
2022-08-27T07:16:28.584Z,27.73
2022-08-27T07:18:58.041Z,28.26
2022-08-27T07:21:29.028Z,28.65
2022-08-27T07:23:59.360Z,28.76
2022-08-27T07:26:26.741Z,29.25
2022-08-27T07:28:53.568Z,29.65
2022-08-27T07:31:23.176Z,30.14
2022-08-27T07:33:53.190Z,30.53
2022-08-27T07:36:22.216Z,30.40
2022-08-27T07:38:56.745Z,30.92
2022-08-27T07:41:30.901Z,30.83
2022-08-27T07:44:18.199Z,31.01
2022-08-27T07:46:47.831Z,31.23
2022-08-27T07:49:17.367Z,31.16
2022-08-27T07:51:44.941Z,31.62
2022-08-27T07:54:11.859Z,31.45
2022-08-27T07:56:38.674Z,31.97
2022-08-27T07:59:05.369Z,32.13
2022-08-27T08:01:32.140Z,32.43
2022-08-27T08:03:59.046Z,32.67
2022-08-27T08:06:26.108Z,32.78
2022-08-27T08:08:52.913Z,33.40
2022-08-27T08:11:20.379Z,33.13
2022-08-27T08:13:48.028Z,33.40
2022-08-27T08:16:15.269Z,33.82
2022-08-27T08:18:42.073Z,33.62
2022-08-27T08:21:12.359Z,33.94
2022-08-27T08:23:39.910Z,34.20
2022-08-27T08:26:08.364Z,33.78
2022-08-27T08:28:35.387Z,33.90
2022-08-27T08:31:02.675Z,33.73
2022-08-27T08:33:31.494Z,34.35
2022-08-27T08:36:12.563Z,34.02
2022-08-27T08:38:40.889Z,34.52
2022-08-27T08:41:31.978Z,34.61
2022-08-27T08:44:05.685Z,34.57
2022-08-27T08:47:01.992Z,34.70
2022-08-27T08:49:47.059Z,34.86
2022-08-27T08:52:30.772Z,34.60
2022-08-27T08:55:10.442Z,35.05
2022-08-27T08:57:45.702Z,35.28
2022-08-27T09:00:13.835Z,35.52
2022-08-27T09:02:54.665Z,35.58
2022-08-27T09:05:24.009Z,35.48
2022-08-27T09:08:15.168Z,35.94
2022-08-27T09:11:20.723Z,35.50
2022-08-27T09:13:58.554Z,35.39
2022-08-27T09:16:25.872Z,35.77
2022-08-27T09:18:52.785Z,36.20
2022-08-27T09:21:48.580Z,36.51
2022-08-27T09:24:30.308Z,35.87
2022-08-27T09:26:56.982Z,36.63
2022-08-27T09:29:29.503Z,36.82
2022-08-27T09:31:59.681Z,37.36
2022-08-27T09:34:35.155Z,37.32
2022-08-27T09:37:04.569Z,37.23
2022-08-27T09:39:41.484Z,37.80
2022-08-27T09:42:08.737Z,36.49
2022-08-27T09:44:52.937Z,37.56
2022-08-27T09:47:20.478Z,37.49
2022-08-27T09:49:47.731Z,38.20
2022-08-27T09:52:37.800Z,37.90
2022-08-27T09:55:05.418Z,38.77
2022-08-27T09:57:39.980Z,38.80
2022-08-27T10:00:15.224Z,38.36
2022-08-27T10:02:53.553Z,38.83
2022-08-27T10:05:29.347Z,38.91
2022-08-27T10:08:05.134Z,39.06
2022-08-27T10:10:41.649Z,38.16
2022-08-27T10:13:18.471Z,38.00
2022-08-27T10:16:03.791Z,38.13
2022-08-27T10:18:57.291Z,38.00
2022-08-27T10:21:41.202Z,38.85
2022-08-27T10:24:30.131Z,38.58
2022-08-27T10:27:44.373Z,37.36
2022-08-27T10:30:15.992Z,37.42
2022-08-27T10:32:55.196Z,38.15
2022-08-27T10:35:25.211Z,37.74
2022-08-27T10:38:07.619Z,36.96
2022-08-27T10:40:41.366Z,37.34
2022-08-27T10:43:13.838Z,37.09
2022-08-27T10:45:58.936Z,37.67
2022-08-27T10:48:51.692Z,38.08
2022-08-27T10:51:26.206Z,38.47
2022-08-27T10:54:06.501Z,38.02
2022-08-27T10:56:42.843Z,37.27
2022-08-27T10:59:45.871Z,37.31
2022-08-27T11:02:24.701Z,36.27
2022-08-27T11:04:56.714Z,35.64
2022-08-27T11:07:32.567Z,34.50
2022-08-27T11:10:05.956Z,35.69
2022-08-27T11:12:39.630Z,35.45
2022-08-27T11:15:27.023Z,35.10
2022-08-27T11:18:01.395Z,34.50
2022-08-27T11:21:05.513Z,33.49
2022-08-27T11:24:07.235Z,35.50
2022-08-27T11:26:36.762Z,36.59
2022-08-27T11:29:19.353Z,37.21
2022-08-27T11:32:16.155Z,38.44
2022-08-27T11:34:53.484Z,35.91
2022-08-27T11:37:36.035Z,34.83
2022-08-27T11:40:30.330Z,34.12
2022-08-27T11:43:03.667Z,33.54
2022-08-27T11:45:38.507Z,33.19
2022-08-27T11:48:16.390Z,33.75
2022-08-27T11:50:57.262Z,36.05
2022-08-27T11:53:30.780Z,37.45
2022-08-27T11:55:57.843Z,38.52
2022-08-27T11:58:33.014Z,38.85
2022-08-27T12:01:03.917Z,39.52
2022-08-27T12:03:33.684Z,39.58
2022-08-27T12:06:02.344Z,40.25
2022-08-27T12:08:34.947Z,40.43
2022-08-27T12:11:25.424Z,40.71
2022-08-27T12:14:00.993Z,40.97
2022-08-27T12:16:56.451Z,40.33
2022-08-27T12:20:00.309Z,41.00
2022-08-27T12:22:29.591Z,37.46
2022-08-27T12:24:58.422Z,35.22
2022-08-27T12:27:29.427Z,34.28
2022-08-27T12:30:07.882Z,35.63
2022-08-27T12:32:41.813Z,37.79
2022-08-27T12:35:22.011Z,38.46
2022-08-27T12:38:06.191Z,38.68
2022-08-27T12:40:46.347Z,37.89
2022-08-27T12:43:22.659Z,36.12
2022-08-27T12:45:52.699Z,33.52
2022-08-27T12:48:24.066Z,32.25
2022-08-27T12:50:58.562Z,31.25
2022-08-27T12:53:42.712Z,30.55
2022-08-27T12:56:18.046Z,33.26
2022-08-27T12:58:53.743Z,35.48
2022-08-27T13:01:43.249Z,35.86
2022-08-27T13:04:28.694Z,34.76
2022-08-27T13:06:55.442Z,33.08
2022-08-27T13:09:34.530Z,31.84
2022-08-27T13:12:05.756Z,31.01
2022-08-27T13:14:40.991Z,30.15
2022-08-27T13:17:15.955Z,29.74
2022-08-27T13:20:00.755Z,29.18
2022-08-27T13:22:36.152Z,28.96
2022-08-27T13:25:02.985Z,28.65
2022-08-27T13:27:33.627Z,28.38
2022-08-27T13:30:08.361Z,28.14
2022-08-27T13:32:37.432Z,28.22
2022-08-27T13:35:05.326Z,28.27
2022-08-27T13:37:47.927Z,28.21
2022-08-27T13:40:30.489Z,27.98
2022-08-27T13:43:05.332Z,27.78
2022-08-27T13:45:38.624Z,27.62
2022-08-27T13:48:06.714Z,27.54
2022-08-27T13:50:36.028Z,27.18
2022-08-27T13:53:37.169Z,26.84
2022-08-27T13:56:03.938Z,26.48
2022-08-27T13:58:33.605Z,26.41
2022-08-27T14:01:23.811Z,26.17
2022-08-27T14:03:57.766Z,25.90
2022-08-27T14:06:45.419Z,25.80
2022-08-27T14:09:17.956Z,25.63
2022-08-27T14:11:45.894Z,25.28
2022-08-27T14:14:13.868Z,25.13
2022-08-27T14:16:41.333Z,25.15
2022-08-27T14:19:24.785Z,25.18
2022-08-27T14:21:52.342Z,25.28
2022-08-27T14:24:19.131Z,25.26
2022-08-27T14:26:50.370Z,25.44
2022-08-27T14:29:17.899Z,25.44
2022-08-27T14:31:45.218Z,25.41
2022-08-27T14:34:12.895Z,25.18
2022-08-27T14:36:41.734Z,25.12
2022-08-27T14:39:09.802Z,25.29
2022-08-27T14:41:36.950Z,24.94
2022-08-27T14:44:04.458Z,24.80
2022-08-27T14:46:36.119Z,24.26
2022-08-27T14:49:13.632Z,24.13
2022-08-27T14:51:43.505Z,23.94
2022-08-27T14:54:10.382Z,23.58
2022-08-27T14:56:37.017Z,23.72
2022-08-27T14:59:04.314Z,23.65
2022-08-27T15:01:31.321Z,23.64
2022-08-27T15:03:58.504Z,23.45
2022-08-27T15:06:27.683Z,23.48
2022-08-27T15:08:54.823Z,23.47
2022-08-27T15:11:24.815Z,23.52
2022-08-27T15:13:53.176Z,23.61
2022-08-27T15:16:38.576Z,23.67
2022-08-27T15:19:07.812Z,23.55
2022-08-27T15:21:36.962Z,23.50
2022-08-27T15:24:16.148Z,23.06
2022-08-27T15:26:42.886Z,22.80
2022-08-27T15:29:10.089Z,22.40
2022-08-27T15:31:37.854Z,22.26
2022-08-27T15:34:07.203Z,22.30
2022-08-27T15:36:35.147Z,22.19
2022-08-27T15:39:02.187Z,22.08
2022-08-27T15:41:34.036Z,22.07
2022-08-27T15:44:01.068Z,22.10
2022-08-27T15:46:28.359Z,22.08
2022-08-27T15:48:55.308Z,22.06
2022-08-27T15:51:29.245Z,22.06
2022-08-27T15:53:55.947Z,22.20
2022-08-27T15:56:23.552Z,21.56
2022-08-27T15:58:50.731Z,21.45
2022-08-27T16:01:24.391Z,21.23
2022-08-27T16:03:51.264Z,21.13
2022-08-27T16:06:19.597Z,21.09
2022-08-27T16:08:46.873Z,20.98
2022-08-27T16:11:14.079Z,20.75
2022-08-27T16:13:41.102Z,20.70
2022-08-27T16:16:08.830Z,20.81
2022-08-27T16:18:36.547Z,20.76
2022-08-27T16:21:04.509Z,20.74
2022-08-27T16:23:32.494Z,20.61
2022-08-27T16:25:59.832Z,20.64
2022-08-27T16:28:27.165Z,20.58
2022-08-27T16:30:55.278Z,20.50
2022-08-27T16:33:23.406Z,20.39
2022-08-27T16:35:50.795Z,20.47
2022-08-27T16:38:19.779Z,20.37
2022-08-27T16:40:50.052Z,20.36
2022-08-27T16:43:21.180Z,20.21
2022-08-27T16:45:52.997Z,20.18
2022-08-27T16:48:39.774Z,20.25
2022-08-27T16:51:09.775Z,20.16
2022-08-27T16:53:39.786Z,19.92
2022-08-27T16:56:06.532Z,19.85
2022-08-27T16:58:33.399Z,19.75
2022-08-27T17:01:06.607Z,19.67
2022-08-27T17:04:06.896Z,19.55
2022-08-27T17:06:29.601Z,19.56
2022-08-27T17:08:58.833Z,19.59
2022-08-27T17:11:27.947Z,19.72
2022-08-27T17:14:02.344Z,19.76
2022-08-27T17:16:31.861Z,19.72
2022-08-27T17:18:59.679Z,19.69
2022-08-27T17:21:30.048Z,19.53
2022-08-27T17:24:01.677Z,19.56
2022-08-27T17:26:30.226Z,19.59
2022-08-27T17:28:56.956Z,19.44
2022-08-27T17:31:33.413Z,19.41
2022-08-27T17:34:01.003Z,19.43
2022-08-27T17:36:30.580Z,19.39
2022-08-27T17:38:58.400Z,19.26
2022-08-27T17:41:38.131Z,19.14
2022-08-27T17:44:13.993Z,19.08
2022-08-27T17:46:40.919Z,19.13
2022-08-27T17:49:07.714Z,19.19
2022-08-27T17:51:35.979Z,19.17
2022-08-27T17:54:03.969Z,19.20
2022-08-27T17:56:30.664Z,19.24
2022-08-27T17:58:57.761Z,19.31
2022-08-27T18:01:31.743Z,19.38
2022-08-27T18:03:59.540Z,19.38
2022-08-27T18:06:28.338Z,19.35
2022-08-27T18:08:55.159Z,19.29
2022-08-27T18:11:22.570Z,19.32
2022-08-27T18:13:53.914Z,19.33
2022-08-27T18:16:21.680Z,19.38
2022-08-27T18:18:48.406Z,19.27
2022-08-27T18:21:25.242Z,19.40
2022-08-27T18:23:53.419Z,19.38
2022-08-27T18:26:23.264Z,19.31
2022-08-27T18:28:50.192Z,19.36
2022-08-27T18:31:19.959Z,19.42
2022-08-27T18:33:46.805Z,19.42
2022-08-27T18:36:14.914Z,19.27
2022-08-27T18:38:41.686Z,19.15
2022-08-27T18:41:08.959Z,19.25
2022-08-27T18:43:36.377Z,19.23
2022-08-27T18:46:04.301Z,19.09
2022-08-27T18:48:31.466Z,19.01
2022-08-27T18:51:00.759Z,19.00
2022-08-27T18:53:30.212Z,18.91
2022-08-27T18:55:56.921Z,18.97
2022-08-27T18:58:24.014Z,18.97
2022-08-27T19:00:54.347Z,18.99
2022-08-27T19:03:49.102Z,18.87
2022-08-27T19:06:18.468Z,19.03
2022-08-27T19:08:45.423Z,19.03
2022-08-27T19:11:13.143Z,19.03
2022-08-27T19:13:40.650Z,19.06
2022-08-27T19:16:14.002Z,18.99
2022-08-27T19:18:41.469Z,19.08
2022-08-27T19:21:08.543Z,19.06
2022-08-27T19:23:35.994Z,19.03
2022-08-27T19:26:03.505Z,19.02
2022-08-27T19:28:41.551Z,19.02
2022-08-27T19:31:08.469Z,18.87
2022-08-27T19:33:36.594Z,18.86
2022-08-27T19:36:05.267Z,18.85
2022-08-27T19:38:32.551Z,18.81
2022-08-27T19:41:01.218Z,18.78
2022-08-27T19:43:28.546Z,18.81
2022-08-27T19:45:57.132Z,18.80
2022-08-27T19:48:24.206Z,18.74
2022-08-27T19:50:50.991Z,18.78
2022-08-27T19:53:18.083Z,18.71
2022-08-27T19:55:46.045Z,18.73
2022-08-27T19:58:14.190Z,18.79
2022-08-27T20:00:41.768Z,18.79
2022-08-27T20:03:08.720Z,18.78
2022-08-27T20:05:36.065Z,18.93
2022-08-27T20:08:04.535Z,18.68
2022-08-27T20:10:35.986Z,18.69
2022-08-27T20:13:04.214Z,18.59
2022-08-27T20:15:30.918Z,18.55
2022-08-27T20:17:59.358Z,18.49
2022-08-27T20:20:27.661Z,18.48
2022-08-27T20:22:55.817Z,18.56
2022-08-27T20:25:23.363Z,18.54
2022-08-27T20:27:50.826Z,18.47
2022-08-27T20:30:22.892Z,18.52
2022-08-27T20:32:50.433Z,18.42
2022-08-27T20:35:18.080Z,18.40
2022-08-27T20:37:46.138Z,18.34
2022-08-27T20:40:23.239Z,18.36
2022-08-27T20:42:50.260Z,18.42
2022-08-27T20:45:17.691Z,18.40
2022-08-27T20:47:48.254Z,18.33
2022-08-27T20:50:16.408Z,18.33
2022-08-27T20:52:45.470Z,18.32
2022-08-27T20:55:14.184Z,18.33
2022-08-27T20:58:04.511Z,18.41
2022-08-27T21:00:43.045Z,18.35
2022-08-27T21:03:12.818Z,18.39
2022-08-27T21:05:42.449Z,18.33
2022-08-27T21:08:09.202Z,18.36
2022-08-27T21:10:36.097Z,18.32
2022-08-27T21:13:05.735Z,18.27
2022-08-27T21:15:33.477Z,18.29
2022-08-27T21:18:00.274Z,18.30
2022-08-27T21:20:27.008Z,18.31
2022-08-27T21:22:55.989Z,18.33
2022-08-27T21:25:24.563Z,18.25
2022-08-27T21:27:53.412Z,18.26
2022-08-27T21:30:21.713Z,18.25
2022-08-27T21:32:48.826Z,18.27
2022-08-27T21:35:15.584Z,18.27
2022-08-27T21:37:43.702Z,18.35
2022-08-27T21:40:10.786Z,18.38
2022-08-27T21:42:37.524Z,18.39
2022-08-27T21:45:04.542Z,18.38
2022-08-27T21:47:31.211Z,18.43
2022-08-27T21:49:57.900Z,18.42
2022-08-27T21:52:24.646Z,18.41
2022-08-27T21:54:51.379Z,18.41
2022-08-27T21:57:19.663Z,18.39
2022-08-27T21:59:49.481Z,18.39
2022-08-27T22:02:38.797Z,18.36
2022-08-27T22:05:06.207Z,18.33
2022-08-27T22:07:32.932Z,18.36
2022-08-27T22:09:59.618Z,18.33
2022-08-27T22:12:26.335Z,18.38
2022-08-27T22:14:53.026Z,18.38
2022-08-27T22:17:19.677Z,18.37
2022-08-27T22:19:46.367Z,18.32
2022-08-27T22:22:13.066Z,18.26
2022-08-27T22:24:39.738Z,18.23
2022-08-27T22:27:06.419Z,18.25
2022-08-27T22:29:33.189Z,18.20
2022-08-27T22:31:59.927Z,18.19
2022-08-27T22:34:26.763Z,18.13
2022-08-27T22:36:53.544Z,18.08
2022-08-27T22:39:23.125Z,18.08
2022-08-27T22:41:51.799Z,18.06
2022-08-27T22:44:18.939Z,18.03
2022-08-27T22:46:45.689Z,17.96
2022-08-27T22:49:12.442Z,17.98
2022-08-27T22:51:39.178Z,18.00
2022-08-27T22:54:05.910Z,17.95
2022-08-27T22:56:32.666Z,17.88
2022-08-27T22:59:02.151Z,17.87
2022-08-27T23:01:36.325Z,17.74
2022-08-27T23:04:04.324Z,17.68
2022-08-27T23:06:31.613Z,17.62
2022-08-27T23:08:58.455Z,17.65
2022-08-27T23:11:25.214Z,17.65
2022-08-27T23:13:51.940Z,17.66
2022-08-27T23:16:18.737Z,17.61
2022-08-27T23:18:45.706Z,17.61
2022-08-27T23:21:12.575Z,17.52
2022-08-27T23:23:39.305Z,17.58
2022-08-27T23:26:24.375Z,17.50
2022-08-27T23:28:51.112Z,17.48
2022-08-27T23:31:18.880Z,17.47
2022-08-27T23:33:46.218Z,17.40
2022-08-27T23:36:13.275Z,17.40
2022-08-27T23:38:40.020Z,17.40
2022-08-27T23:41:07.910Z,17.35
2022-08-27T23:43:34.611Z,17.34
2022-08-27T23:46:01.409Z,17.36
2022-08-27T23:48:28.138Z,17.36
2022-08-27T23:50:54.835Z,17.37
2022-08-27T23:53:21.582Z,17.37
2022-08-27T23:55:48.249Z,17.37
2022-08-27T23:58:15.050Z,17.37
